Monday, October 21, 2019, 8:46 PM CDT
Back to Local

KT82, Fredericksburg, Gillespie County Airport

Location: Fredericksburg, TX, United States Lat: 30.244
Local Time: 8:46 PM CDT ( 1:46 GMT) Lon: -98.909
Time Zone: US/Central Elev: 1696 ft

Show me the last for .
Show Decoded

2019-10-21 20:15 METAR KT82 220115Z AUTO 00000KT 10SM CLR 15/08 A3000 RMK AO2 T01530078 =
2019-10-21 19:55 METAR KT82 220055Z AUTO 00000KT 10SM CLR 15/07 A2998 RMK AO2 T01540071 =
2019-10-21 19:35 METAR KT82 220035Z AUTO 00000KT 10SM CLR 17/06 A2997 RMK AO2 T01690061 =
2019-10-21 19:15 METAR KT82 220015Z AUTO 00000KT 10SM CLR 19/03 A2997 RMK AO2 T01920026 =
2019-10-21 18:55 METAR KT82 212355Z AUTO 00000KT 10SM CLR 20/03 A2995 RMK AO2 T01970028 10246
                 20197 =
2019-10-21 18:35 METAR KT82 212335Z AUTO 35004KT 10SM CLR 22/01 A2995 RMK AO2 T02150009 =
2019-10-21 18:15 METAR KT82 212315Z AUTO 36006KT 10SM CLR 23/M01 A2994 RMK AO2 T02271010 =
2019-10-21 17:55 METAR KT82 212255Z AUTO 36004KT 10SM CLR 24/M02 A2994 RMK AO2 T02351017 =
2019-10-21 17:35 METAR KT82 212235Z AUTO 02006KT 10SM CLR 24/M01 A2993 RMK AO2 T02381015 =
2019-10-21 17:15 METAR KT82 212215Z AUTO 01006KT 10SM CLR 24/M02 A2993 RMK AO2 T02401023 =
2019-10-21 16:55 METAR KT82 212155Z AUTO 01005KT 10SM CLR 24/M02 A2993 RMK AO2 T02401024 =
2019-10-21 16:35 METAR KT82 212135Z AUTO 00000KT 10SM CLR 24/M02 A2993 RMK AO2 T02381021 =
2019-10-21 16:15 METAR KT82 212115Z AUTO 31004KT 10SM CLR 25/M02 A2993 RMK AO2 T02451016 =
2019-10-21 15:55 METAR KT82 212055Z AUTO 33004KT 10SM CLR 24/M02 A2993 RMK AO2 T02401019 =
2019-10-21 15:35 METAR KT82 212035Z AUTO 35004KT 10SM CLR 24/M01 A2993 RMK AO2 T02371014 =
2019-10-21 15:15 METAR KT82 212015Z AUTO 01009KT 10SM CLR 24/M01 A2994 RMK AO2 T02371010 =
2019-10-21 14:55 METAR KT82 211955Z AUTO 03003KT 10SM CLR 23/00 A2994 RMK AO2 T02331003 =
2019-10-21 14:35 METAR KT82 211935Z AUTO 03006KT 10SM CLR 23/00 A2994 RMK AO2 T02320002 =
2019-10-21 14:15 METAR KT82 211915Z AUTO 35005KT 10SM CLR 23/00 A2995 RMK AO2 T02271004 =
2019-10-21 13:55 METAR KT82 211855Z AUTO 03007KT 10SM CLR 22/00 A2996 RMK AO2 T02240003 =
2019-10-21 13:35 METAR KT82 211835Z AUTO 03009KT 10SM CLR 22/00 A2996 RMK AO2 T02240002 =
2019-10-21 13:15 METAR KT82 211815Z AUTO 02006KT 10SM CLR 22/00 A2997 RMK AO2 T02151005 =
2019-10-21 12:55 METAR KT82 211755Z AUTO 01007KT 10SM CLR 22/00 A2997 RMK AO2 T02151001 10215
                 20136 =
2019-10-21 12:35 METAR KT82 211735Z AUTO 04007KT 10SM CLR 21/01 A2998 RMK AO2 T02090005 =
2019-10-21 12:15 METAR KT82 211715Z AUTO 02010KT 10SM CLR 21/01 A2998 RMK AO2 T02100014 =
2019-10-21 11:55 METAR KT82 211655Z AUTO 02008KT 10SM CLR 20/01 A2998 RMK AO2 T02010009 =
2019-10-21 11:35 METAR KT82 211635Z AUTO 02008KT 10SM CLR 20/01 A2998 RMK AO2 T01990009 =
2019-10-21 11:15 METAR KT82 211615Z AUTO 01008KT 10SM CLR 20/01 A2997 RMK AO2 T01960012 =
2019-10-21 10:55 METAR KT82 211555Z AUTO 36010G16KT 10SM CLR 19/01 A2998 RMK AO2 T01920011 =
2019-10-21 10:35 METAR KT82 211535Z AUTO 36010KT 10SM CLR 19/02 A2997 RMK AO2 T01850016 =
2019-10-21 10:15 METAR KT82 211515Z AUTO 02012G20KT 10SM CLR 18/02 A2997 RMK AO2 T01780016 =
2019-10-21 09:55 METAR KT82 211455Z AUTO 03010G15KT 10SM CLR 18/03 A2996 RMK AO2 T01750025 =
2019-10-21 09:35 METAR KT82 211435Z AUTO 02009G21KT 10SM CLR 17/04 A2996 RMK AO2 T01690035 =
2019-10-21 09:15 METAR KT82 211415Z AUTO 02009KT 10SM CLR 17/04 A2995 RMK AO2 T01650044 =
2019-10-21 08:55 METAR KT82 211355Z AUTO 02004KT 10SM CLR 16/08 A2994 RMK AO2 T01560076 =
2019-10-21 08:35 METAR KT82 211335Z AUTO 00000KT 10SM CLR 15/10 A2992 RMK AO2 T01450098 =
2019-10-21 08:15 METAR KT82 211315Z AUTO 00000KT 10SM CLR 14/10 A2990 RMK AO2 T01370097 =
2019-10-21 07:55 METAR KT82 211255Z AUTO 32004KT 10SM CLR 14/10 A2990 RMK AO2 T01400100 =
2019-10-21 07:35 METAR KT82 211235Z AUTO 01004KT 10SM CLR 15/10 A2989 RMK AO2 T01460101 =
2019-10-21 07:15 METAR KT82 211215Z AUTO 03004KT 10SM CLR 15/11 A2988 RMK AO2 T01490110 =
2019-10-21 06:55 METAR KT82 211155Z AUTO 35009KT 10SM CLR 16/12 A2987 RMK AO2 60049 70049
                 T01550118 10249 20155 =
2019-10-21 06:35 METAR KT82 211135Z AUTO 36009KT 10SM CLR 16/13 A2986 RMK AO2 T01560125 =
2019-10-21 06:15 METAR KT82 211115Z AUTO 35010KT 10SM CLR 16/13 A2985 RMK AO2 T01570130 =
2019-10-21 05:55 METAR KT82 211055Z AUTO 32005KT 10SM SCT100 SCT120 16/14 A2983 RMK AO2 T01600137
                 =
2019-10-21 05:35 METAR KT82 211035Z AUTO 33005KT 10SM SCT080 BKN100 OVC120 17/15 A2982 RMK AO2
                 LTG DSNT SE T01650145 =
2019-10-21 05:15 METAR KT82 211015Z AUTO 05003KT 10SM -DZ SCT080 BKN090 OVC120 17/15 A2982 RMK
                 AO2 T01650149 =
2019-10-21 04:55 METAR KT82 210955Z AUTO 00000KT 10SM -DZ BKN080 OVC100 17/14 A2983 RMK AO2 P0004
                 T01680142 =
2019-10-21 04:35 METAR KT82 210935Z AUTO 00000KT 7SM -RA SCT021 SCT048 OVC090 17/14 A2982 RMK AO2
                 P0004 T01670138 =
2019-10-21 04:15 METAR KT82 210915Z AUTO 27007KT 10SM RA SCT021 SCT060 OVC070 17/14 A2983 RMK AO2
                 P0002 T01670141 =
2019-10-21 03:55 METAR KT82 210855Z AUTO 00000KT 10SM -RA SCT050 SCT070 OVC085 17/15 A2981 RMK
                 AO2 60045 T01670146 =
2019-10-21 03:35 METAR KT82 210835Z AUTO 18005KT 10SM SCT048 BKN070 OVC085 16/15 A2982 RMK AO2
                 T01630148 =
2019-10-21 03:15 METAR KT82 210815Z AUTO 22006KT 10SM BKN060 OVC080 17/15 A2982 RMK AO2 LTG DSNT
                 E T01650151 =
2019-10-21 02:55 METAR KT82 210755Z AUTO 20003KT 10SM -VCTSRA SCT023 SCT035 OVC060 17/15 A2982
                 RMK AO2 LTG DSNT NE THRU S P0045 T01650151 =
2019-10-21 02:35 METAR KT82 210735Z AUTO 28008G23KT 2 1/2SM +TSRA SCT011 BKN024 OVC041 17/15
                 A2985 RMK AO2 LTG DSNT ALQS P0035 T01650150 =
2019-10-21 02:15 METAR KT82 210715Z AUTO 32021G24KT 10SM VCTSRA SCT019 BKN029 OVC038 20/15 A2985
                 RMK AO2 LTG DSNT W THRU NE T01970145 =
2019-10-21 01:55 METAR KT82 210655Z AUTO 32018G27KT 10SM OVC021 24/19 A2982 RMK AO2 LTG DSNT N
                 AND NE T02440186 =
2019-10-21 01:35 METAR KT82 210635Z AUTO 18003KT 10SM BKN023 BKN030 OVC038 25/20 A2977 RMK AO2
                 LTG DSNT N AND NW T02470203 =
2019-10-21 01:15 METAR KT82 210615Z AUTO 19006G10KT 10SM BKN023 BKN030 OVC036 25/20 A2975 RMK AO2
                 LTG DSNT NW T02480202 =
2019-10-21 00:55 METAR KT82 210555Z AUTO 18005KT 10SM SCT021 SCT027 BKN033 25/20 A2975 RMK AO2
                 LTG DSNT N T02470202 10272 20229 402950122 =
2019-10-21 00:35 METAR KT82 210535Z AUTO 19005G16KT 10SM SCT021 SCT026 BKN033 25/20 A2974 RMK AO2
                 LTG DSNT NW T02480202 =
2019-10-21 00:15 METAR KT82 210515Z AUTO 18009KT 10SM BKN021 BKN028 OVC033 25/20 A2975 RMK AO2
                 T02500203 =
2019-10-20 23:55 METAR KT82 210455Z AUTO 19006KT 10SM OVC023 25/20 A2976 RMK AO2 T02530202 =
2019-10-20 23:35 METAR KT82 210435Z AUTO 18004KT 10SM OVC023 26/20 A2976 RMK AO2 T02550203 =
2019-10-20 23:15 METAR KT82 210415Z AUTO 18006KT 10SM OVC023 26/21 A2975 RMK AO2 T02550205 =
2019-10-20 22:55 METAR KT82 210355Z AUTO 17006KT 10SM BKN025 OVC030 26/21 A2976 RMK AO2 T02550207
                 =
2019-10-20 22:35 METAR KT82 210335Z AUTO 17007KT 10SM BKN030 25/21 A2975 RMK AO2 T02520207 =
2019-10-20 22:15 METAR KT82 210315Z AUTO 17004KT 10SM SCT030 SCT039 25/21 A2975 RMK AO2 T02510207
                 =
2019-10-20 21:55 METAR KT82 210255Z AUTO 00000KT 10SM CLR 24/19 A2975 RMK AO2 T02430190 =
2019-10-20 21:35 METAR KT82 210235Z AUTO 00000KT 10SM SCT041 25/19 A2975 RMK AO2 T02450188 =
2019-10-20 21:15 METAR KT82 210215Z AUTO 00000KT 10SM SCT041 23/18 A2975 RMK AO2 T02290182 =
2019-10-20 20:55 METAR KT82 210155Z AUTO 00000KT 10SM SCT041 SCT060 25/19 A2974 RMK AO2 T02490187
                 =

Support USWX by starting your Amazon purchase here.